Latest METARs, TAFs and NOTAMs for RJSS


---------------------------------------------------------------------------
	(OBSERVATIONS)
RJSS 170300Z 14009KT 9999 FEW030 BKN140 BKN/// 04/M06 Q1015=
RJSS 170200Z VRB02KT 9999 FEW030 BKN/// 03/M06 Q1015=
RJSS 170100Z 33004KT 9999 FEW030 BKN/// 03/M05 Q1016=
---------------------------------------------------------------------------
	(TERMINAL AREA FORECAST)
AMD RJSS 170213Z 1702/1806 06005KT 9999 FEW020 BKN040
    BECMG 1712/1715 34004KT
    BECMG 1800/1803 12005KT=
---------------------------------------------------------------------------
	(NOTAMS)


RJSS K0297/21 AEROBATICS: 1.FLT AREA : WI A RADIUS OF 2KM OF
    380025N1404820E (APRX QTE/214DEG 17684M FM RJSS ARP) (AROUND
    KAKUDA-GLIDER-PORT,KAKUDA-SHI IN MIYAGI) 2.USING ACFT : GLIDER,PTS2
    3.TIME : HJ 4.RMK : VMC ONLY 1030FT AMSL 3030FT AMSL 31 JAN
    21:10 UNTIL 28 FEB 08:29 2110/0829

RJSS K0777/20 REF AIP SUP 145/20 ITEM RWY:1 GROOVING FOR RWY
    09/27 PARTLY ERASED. 14 AUG 05:24 2020 UNTIL 31 MAR 12:30
    2021. CREATED: 14 AUG 05:24 2020

RJSS K1541/20 FLW LOW ALTITUDE WARNINGS NOT PROVIDED DUE TO MAINT
    THE APPROACH COURSE OF INSTRUMENT APPROACH RMK/AIP PAGE ENR1.6-16
    1.14 PROVISION OF LOW ALTITUDE WARNINGS. 10 NOV 22:30 2020
    UNTIL 24 FEB 22:30 2021. CREATED: 07 NOV 03:18 2020

RJSS K1660/20 GROOVING FOR RWY 09/27 PARTLY ERASED DUE TO CONST
    LEN: 96.3M (BTN 285.7M AND 382.0M FM RWY 09 THR) WID: 30M
    (WITHIN AND EXTENDING UP TO 15M BOTH SIDE OF RCL. 02 DEC
    05:51 2020 UNTIL 02 MAR 12:30 2021. CREATED: 02 DEC 05:51
    2020

RJSS K1697/20 AEROBATICS: 1.FLT AREA : WI A RADIUS OF 2KM OF
    380025N1404820E (APRX QTE/214DEG 17684M FM RJSS ARP) (AROUND
    KAKUDA-GLIDER-PORT,KAKUDA-SHI IN MIYAGI) 2.USING ACFT : GLIDER,PTS2
    3.TIME : HJ 4.RMK : VMC ONLY 1030FT AMSL 3030FT AMSL 31 DEC
    21:42 UNTIL 31 JAN 07:59 2021 2142/0759

---------------------------------------------------------------------------